Latest Weather Observations for Cobar

IDN60801

Issued at 10:32 pm EST Tuesday 21 April 2015 (issued every 30 minutes, with the page automatically refreshed every 10 minutes)

About weather observations | Map of weather stations | Latest weather observations for NSW | Other Formats
Station Details ID: 048027 Name: COBAR MO Lat: -31.48 Lon: 145.83 Height: 260.0 m
Data from the previous 72 hours. | See also: Recent months at Cobar
Date/Time
EST
Temp
°C
App
Temp
°C
Dew
Point
Rel
Hum
%
Delta-T
°C
Wind Press
QNH
hPa
Press
MSL
hPa
Rain
since 9 am
mm
Dir
 
Spd
km/h
Gust
km/h
Spd
kts
Gust
kts
21/10:30pm 12.8 10.2 6.1 64 3.2 S 9 13 5 7 1023.1 - 0.0
21/10:00pm 12.2 11.7 8.0 75 2.1 CALM 0 0 0 0 1023.0 - 0.0
21/09:30pm 12.3 10.4 6.7 68 2.7 S 6 9 3 5 1023.2 - 0.0
21/09:00pm 12.3 10.2 6.5 67 2.8 S 7 9 4 5 1023.2 1022.5 0.0
21/08:30pm 13.2 10.2 5.9 61 3.5 S 11 17 6 9 1023.4 - 0.0
21/08:00pm 13.2 10.6 5.9 61 3.5 S 9 13 5 7 1023.4 - 0.0
21/07:30pm 13.6 11.0 5.9 59 3.7 S 9 13 5 7 1023.4 - 0.0
21/07:00pm 14.0 10.9 5.6 57 4.0 S 11 19 6 10 1023.4 - 0.0
21/06:30pm 14.4 11.3 5.4 54 4.3 S 11 17 6 9 1023.4 - 0.0
21/06:00pm 14.8 11.2 5.1 52 4.6 S 13 22 7 12 1023.5 1022.9 0.0
21/05:30pm 15.5 11.1 5.0 49 5.0 S 17 26 9 14 1023.2 - 0.0
21/05:00pm 16.2 11.6 5.4 48 5.2 S 19 28 10 15 1023.0 - 0.0
21/04:30pm 16.4 11.4 4.6 45 5.6 SSE 20 28 11 15 1022.9 - 0.0
21/04:00pm 17.0 12.2 4.7 44 5.9 SSE 19 28 10 15 1022.8 - 0.0
21/03:30pm 17.8 12.8 4.5 41 6.4 SSE 20 28 11 15 1022.8 - 0.0
21/03:00pm 17.8 12.7 4.2 40 6.5 SSE 20 35 11 19 1022.7 1022.0 0.0
21/02:30pm 17.4 12.7 5.3 45 5.9 S 19 33 10 18 1022.5 - 0.0
21/02:00pm 17.5 12.8 5.1 44 6.0 S 19 28 10 15 1022.7 - 0.0
21/01:30pm 16.6 11.9 5.2 47 5.5 S 19 28 10 15 1022.7 - 0.0
21/01:00pm 16.4 11.5 4.9 46 5.5 S 20 30 11 16 1023.0 - 0.0
21/12:30pm 16.3 12.1 5.6 49 5.2 S 17 28 9 15 1023.2 - 0.0
21/12:00pm 15.2 10.3 4.9 50 4.9 SSE 20 30 11 16 1023.7 1023.1 0.0
21/11:30am 15.5 10.8 5.3 50 4.9 S 19 28 10 15 1023.9 - 0.0
21/11:00am 15.1 10.5 5.5 52 4.6 S 19 32 10 17 1024.6 - 0.0
21/10:30am 14.8 10.2 5.4 53 4.5 SSE 19 30 10 16 1024.9 - 0.0
21/10:00am 13.7 8.4 5.2 56 4.0 S 22 30 12 16 1025.1 - 0.0
21/09:30am 12.9 8.7 5.7 61 3.4 S 17 24 9 13 1025.3 - 0.0
21/09:00am 11.3 7.1 5.5 67 2.7 S 17 28 9 15 1025.4 1024.7 9.2
21/08:30am 10.5 6.6 5.5 71 2.3 SSW 15 20 8 11 1025.3 - 9.2
21/08:00am 10.1 6.7 5.8 74 2.0 SSW 13 20 7 11 1025.0 - 9.2
21/07:30am 10.3 6.4 5.3 71 2.3 S 15 26 8 14 1024.8 - 9.2
21/07:00am 10.4 6.5 5.4 71 2.3 S 15 24 8 13 1024.6 - 9.2
21/06:30am 10.7 6.5 5.5 70 2.4 S 17 30 9 16 1024.3 - 9.2
21/06:00am 11.1 6.5 5.5 68 2.6 S 19 28 10 15 1024.0 1023.4 9.2
21/05:30am 10.9 6.8 6.0 72 2.3 S 17 26 9 14 1024.0 - 9.2
21/05:00am 10.6 6.5 6.1 74 2.1 S 17 24 9 13 1023.8 - 9.2
21/04:30am 10.3 6.2 6.3 76 1.9 S 17 26 9 14 1023.6 - 9.2
21/04:00am 10.1 6.1 6.5 78 1.7 S 17 22 9 12 1023.6 - 9.2
21/03:30am 10.0 6.3 6.4 78 1.7 S 15 22 8 12 1023.4 - 9.2
21/03:00am 10.0 6.2 5.9 75 1.9 S 15 24 8 13 1023.5 1022.9 9.2
21/02:30am 9.7 6.4 6.5 80 1.5 SSW 13 19 7 10 1023.3 - 9.2
21/02:00am 9.9 6.7 6.7 80 1.5 S 13 19 7 10 1023.5 - 9.2
21/01:30am 10.1 6.2 7.0 81 1.5 S 17 24 9 13 1024.0 - 9.2
21/01:00am 10.1 6.2 7.2 82 1.4 S 17 28 9 15 1024.2 - 9.2
21/12:30am 10.3 6.5 7.4 82 1.4 S 17 30 9 16 1024.1 - 9.2
21/12:00am 10.0 6.7 7.9 87 1.0 SSW 15 20 8 11 1024.1 1023.5 9.2
 
Date/Time
EST
Temp
°C
App
Temp
°C
Dew
Point
Rel
Hum
%
Delta-T
°C
Wind Press
QNH
hPa
Press
MSL
hPa
Rain
since 9 am
mm
Dir
 
Spd
km/h
Gust
km/h
Spd
kts
Gust
kts
20/11:30pm 10.0 6.4 8.2 88 0.9 SSW 17 24 9 13 1024.7 - 9.2
20/11:00pm 9.6 6.8 8.4 92 0.6 SSW 13 19 7 10 1025.1 - 9.0
20/10:30pm 9.6 6.4 8.4 92 0.6 SSW 15 22 8 12 1025.3 - 8.8
20/10:00pm 9.8 5.8 8.2 90 0.8 SSW 19 30 10 16 1025.5 - 8.4
20/09:30pm 10.3 5.6 7.6 83 1.3 S 22 35 12 19 1025.6 - 8.2
20/09:00pm 10.1 5.7 7.6 84 1.2 SSW 20 32 11 17 1025.4 1024.7 8.2
20/08:30pm 9.6 4.9 7.7 88 0.9 SSW 22 35 12 19 1025.2 - 8.2
20/08:00pm 9.5 5.3 7.4 87 1.0 SSW 19 28 10 15 1025.3 - 7.8
20/07:30pm 9.3 5.1 7.6 89 0.8 SW 19 28 10 15 1025.4 - 7.8
20/07:00pm 9.0 4.9 7.8 92 0.6 SSW 19 28 10 15 1025.6 - 7.8
20/06:30pm 8.9 4.5 7.6 91 0.6 SW 20 26 11 14 1025.6 - 6.0
20/06:19pm 8.8 4.7 8.0 95 0.4 SSW 19 28 10 15 1025.7 - 5.2
20/06:00pm 8.8 4.5 7.8 93 0.5 SSW 20 37 11 20 1025.5 1024.7 4.0
20/05:43pm 9.3 3.7 7.2 87 1.0 SSW 26 41 14 22 1025.4 - 2.2
20/05:30pm 9.7 3.2 6.7 81 1.4 S 30 52 16 28 1025.2 - 1.2
20/05:24pm 10.0 3.9 6.6 79 1.6 S 28 52 15 28 1025.3 - 1.2
20/05:00pm 10.3 5.4 6.7 78 1.7 S 22 33 12 18 1025.2 - 1.2
20/04:31pm 11.5 4.1 4.0 60 3.4 S 32 54 17 29 1025.1 - 0.8
20/04:30pm 11.7 4.3 3.9 59 3.5 S 32 48 17 26 1025.1 - 0.8
20/04:00pm 12.2 4.7 3.2 54 4.0 S 32 54 17 29 1025.0 - 0.8
20/03:30pm 12.3 4.8 3.4 54 4.0 S 32 52 17 28 1025.2 - 0.8
20/03:25pm 12.2 5.4 3.0 53 4.1 S 28 52 15 28 1025.2 - 0.8
20/03:00pm 11.8 5.4 3.0 55 3.9 S 26 41 14 22 1025.2 1024.5 0.8
20/02:30pm 11.5 5.7 4.5 62 3.2 S 24 39 13 21 1025.7 - 0.8
20/02:00pm 11.6 6.3 4.9 63 3.1 S 22 33 12 18 1026.0 - 0.8
20/01:30pm 11.2 4.8 5.4 67 2.7 S 28 39 15 21 1026.3 - 0.8
20/01:00pm 11.6 6.3 6.6 71 2.4 S 24 43 13 23 1026.7 - 0.8
20/12:30pm 10.0 3.9 6.6 79 1.6 SSE 28 43 15 23 1027.1 - 0.6
20/12:15pm 10.4 4.9 7.7 83 1.3 SE 26 35 14 19 1027.2 - 0.4
20/12:09pm 11.3 4.6 5.7 68 2.6 SSE 30 43 16 23 1027.1 - 0.0
20/12:00pm 12.5 5.4 3.4 54 4.1 SSE 30 43 16 23 1027.0 1026.4 0.0
20/11:49am 12.8 6.2 4.0 55 4.0 SSE 28 43 15 23 1027.0 - 0.0
20/11:30am 12.6 5.5 3.5 54 4.1 S 30 52 16 28 1027.3 - 0.0
20/11:00am 11.8 5.1 3.8 58 3.6 S 28 48 15 26 1027.5 - 0.0
20/10:56am 12.3 5.5 3.1 53 4.1 S 28 48 15 26 1027.5 - 0.0
20/10:30am 12.6 7.0 3.2 52 4.2 S 22 39 12 21 1027.5 - 0.0
20/10:00am 11.1 5.8 3.2 58 3.5 S 20 33 11 18 1027.9 - 0.0
20/09:30am 10.4 4.3 2.8 59 3.3 S 24 35 13 19 1028.2 - 0.0
20/09:00am 9.8 4.5 3.1 63 2.9 SSW 20 28 11 15 1028.2 1027.6 0.0
20/08:30am 8.6 4.3 3.3 69 2.3 SSW 15 20 8 11 1028.1 - 0.0
20/08:00am 7.2 2.5 3.2 76 1.7 SSW 17 22 9 12 1028.2 - 0.0
20/07:30am 6.5 1.4 3.2 79 1.4 SW 19 24 10 13 1027.9 - 0.0
20/07:00am 5.5 1.6 3.4 86 0.9 SW 13 19 7 10 1027.3 - 0.0
20/06:30am 5.3 1.0 3.4 87 0.8 SW 15 20 8 11 1027.2 - 0.0
20/06:00am 5.6 1.3 3.2 84 1.0 SW 15 19 8 10 1027.0 1026.4 0.0
20/05:30am 5.6 1.7 3.5 86 0.9 SW 13 20 7 11 1026.9 - 0.0
20/05:00am 5.8 1.9 3.4 84 1.0 SW 13 17 7 9 1026.9 - 0.0
20/04:30am 6.2 2.3 3.4 82 1.2 SW 13 19 7 10 1026.8 - 0.0
20/04:00am 6.4 2.5 3.6 82 1.2 SW 13 19 7 10 1026.8 - 0.0
20/03:30am 6.6 2.4 3.6 81 1.3 SSW 15 19 8 10 1026.7 - 0.0
20/03:00am 6.7 2.9 3.7 81 1.3 SW 13 17 7 9 1026.8 1026.2 0.0
20/02:30am 6.9 3.4 3.6 79 1.4 SW 11 15 6 8 1027.0 - 0.0
20/02:00am 7.5 3.6 3.5 76 1.7 SSW 13 17 7 9 1027.1 - 0.0
20/01:30am 7.8 4.3 3.6 75 1.8 SSW 11 15 6 8 1027.0 - 0.0
20/01:00am 8.1 4.6 3.7 74 1.9 SW 11 15 6 8 1027.3 - 0.0
20/12:30am 8.8 5.3 3.5 69 2.3 SSW 11 19 6 10 1027.4 - 0.0
20/12:00am 9.2 5.7 3.7 68 2.4 SSW 11 17 6 9 1027.7 1027.1 0.0
 
Date/Time
EST
Temp
°C
App
Temp
°C
Dew
Point
Rel
Hum
%
Delta-T
°C
Wind Press
QNH
hPa
Press
MSL
hPa
Rain
since 9 am
mm
Dir
 
Spd
km/h
Gust
km/h
Spd
kts
Gust
kts
19/11:30pm 9.7 6.2 3.5 65 2.7 SSW 11 15 6 8 1027.9 - 0.0
19/11:00pm 10.2 6.3 3.6 63 2.9 SSW 13 17 7 9 1028.0 - 0.0
19/10:30pm 10.5 6.6 3.5 62 3.1 SSW 13 20 7 11 1028.2 - 0.0
19/10:00pm 10.9 6.6 3.2 59 3.4 SSW 15 22 8 12 1028.2 - 0.0
19/09:30pm 11.4 6.6 2.7 55 3.8 SSW 17 26 9 14 1028.2 - 0.0
19/09:00pm 11.8 6.9 2.1 51 4.2 SSW 17 26 9 14 1028.1 1027.5 0.0
19/08:30pm 12.1 7.2 1.9 49 4.4 SSW 17 26 9 14 1027.8 - 0.0
19/08:00pm 12.6 7.3 1.7 47 4.7 SSW 19 28 10 15 1027.5 - 0.0
19/07:30pm 13.1 7.5 0.9 43 5.2 S 20 32 11 17 1027.1 - 0.0
19/07:00pm 13.3 8.6 1.2 43 5.2 SSW 15 22 8 12 1026.4 - 0.0
19/06:30pm 13.8 8.1 0.4 40 5.7 S 20 28 11 15 1025.9 - 0.0
19/06:00pm 14.2 8.4 -0.3 37 6.1 S 20 32 11 17 1025.6 1024.9 0.0
19/05:30pm 15.1 9.3 0.2 36 6.4 SSW 20 32 11 17 1025.2 - 0.0
19/05:00pm 15.6 9.1 0.0 34 6.7 SSW 24 35 13 19 1024.9 - 0.0
19/04:30pm 16.4 10.6 -0.4 32 7.2 SSW 20 35 11 19 1024.6 - 0.0
19/04:00pm 16.8 11.0 -0.4 31 7.4 S 20 32 11 17 1024.2 - 0.0
19/03:30pm 17.0 10.6 0.7 33 7.2 SW 24 39 13 21 1024.0 - 0.0
19/03:00pm 17.1 10.6 0.5 32 7.3 S 24 33 13 18 1023.9 1023.3 0.0
19/02:30pm 16.5 10.7 2.1 38 6.5 S 22 37 12 20 1023.8 - 0.0
19/02:00pm 16.2 11.2 4.6 46 5.5 SSW 20 32 11 17 1023.8 - 0.0
19/01:30pm 15.6 11.0 6.7 55 4.4 SSW 20 32 11 17 1024.1 - 0.0
19/01:00pm 15.3 10.7 6.3 55 4.4 SSW 20 33 11 18 1024.2 - 0.0
19/12:30pm 15.2 10.6 8.1 62 3.6 SSW 22 32 12 17 1024.2 - 0.0
19/12:00pm 14.4 10.4 9.2 71 2.7 SSW 20 28 11 15 1024.3 1023.7 0.0
19/11:30am 14.2 9.4 8.9 70 2.7 SSW 24 33 13 18 1024.4 - 0.0
19/11:18am 14.4 9.7 9.4 72 2.6 SSW 24 35 13 19 1024.6 - 0.0
19/11:00am 13.5 9.0 10.0 79 1.8 SSW 24 37 13 20 1024.6 - 0.0
19/10:30am 13.7 9.7 10.5 81 1.7 SSW 22 32 12 17 1024.4 - 0.0
19/10:00am 13.6 9.5 11.6 88 1.1 SSW 24 37 13 20 1024.1 - 0.0
19/09:30am 14.6 11.4 11.3 80 1.8 SSW 19 28 10 15 1023.7 - 0.0
19/09:00am 14.3 12.0 11.9 85 1.3 SSW 15 20 8 11 1023.5 1022.9 2.6
19/08:30am 13.6 11.6 11.6 88 1.1 SSW 13 19 7 10 1023.3 - 2.6
19/08:00am 13.4 10.2 11.3 87 1.1 SSW 19 26 10 14 1022.7 - 2.6
19/07:30am 13.1 10.4 11.6 91 0.8 SSW 17 26 9 14 1022.0 - 2.6
19/07:00am 12.6 10.8 12.0 96 0.3 SW 13 20 7 11 1021.4 - 2.6
19/06:44am 12.2 11.1 11.8 97 0.2 SW 9 13 5 7 1021.3 - 2.6
19/06:30am 12.1 10.9 11.7 97 0.2 SW 9 11 5 6 1021.3 - 2.6
19/06:00am 12.2 11.6 11.6 96 0.3 SW 6 7 3 4 1020.7 1020.0 2.6
19/05:30am 12.6 11.5 11.9 95 0.4 SSW 9 11 5 6 1020.1 - 2.6
19/05:00am 13.2 11.8 12.1 93 0.6 SSW 11 15 6 8 1019.9 - 2.6
19/04:30am 13.4 12.3 12.1 92 0.7 SSW 9 15 5 8 1019.6 - 2.6
19/04:27am 13.4 12.3 12.1 92 0.7 SSW 9 15 5 8 1019.5 - 2.6
19/04:00am 13.3 11.6 12.4 94 0.5 SSW 13 17 7 9 1019.3 - 2.6
19/03:57am 13.3 11.5 12.2 93 0.6 SSW 13 19 7 10 1019.2 - 2.6
19/03:30am 13.3 11.5 12.2 93 0.6 SSW 13 20 7 11 1019.0 - 2.6
19/03:00am 13.9 11.7 12.1 89 1.0 SW 15 20 8 11 1019.5 1018.7 2.6
19/02:30am 14.1 11.5 12.1 88 1.1 SSW 17 24 9 13 1019.0 - 2.6
19/02:00am 14.5 12.0 12.3 87 1.2 SSW 17 28 9 15 1018.9 - 2.6
19/01:30am 14.7 12.7 12.7 88 1.1 SSW 15 26 8 14 1019.4 - 2.6
19/01:09am 15.1 12.9 13.3 89 1.0 SSW 17 28 9 15 1019.3 - 2.6
19/01:00am 15.3 12.7 13.3 88 1.1 SSW 19 28 10 15 1019.2 - 2.6
19/12:43am 15.3 14.0 14.8 97 0.3 SSW 15 26 8 14 1019.1 - 2.6
19/12:30am 15.4 14.1 14.7 96 0.4 SSW 15 22 8 12 1019.1 - 2.6
19/12:00am 15.5 12.9 14.8 96 0.4 SW 22 33 12 18 1019.1 1018.4 2.6
 
Date/Time
EST
Temp
°C
App
Temp
°C
Dew
Point
Rel
Hum
%
Delta-T
°C
Wind Press
QNH
hPa
Press
MSL
hPa
Rain
since 9 am
mm
Dir
 
Spd
km/h
Gust
km/h
Spd
kts
Gust
kts
18/11:43pm 16.1 14.0 15.2 94 0.5 SW 20 28 11 15 1018.9 - 2.6
18/11:30pm 16.4 14.6 15.4 94 0.6 SW 19 28 10 15 1018.9 - 2.6
18/11:00pm 16.8 14.6 16.0 95 0.5 SW 22 28 12 15 1018.9 - 2.6
18/10:37pm 17.2 17.3 16.5 96 0.4 W 11 15 6 8 1018.9 - 2.6

Other Formats:

Comma delimited format used in spreadsheet applications
http://www.bom.gov.au/fwo/IDN60801/IDN60801.94711.axf

JavaScript Object Notation format (JSON) in row-major order
http://www.bom.gov.au/fwo/IDN60801/IDN60801.94711.json